This is the latest recevied weather packets stored in our database for station/object BM1CKC-10. If no packets are shown the sender has not sent any weather packets the latest 1 day(s).
| Time | Temp. | Humidity | Pressure | Rain* | Wind** | Luminosity | Snow |
|---|---|---|---|---|---|---|---|
| 1836274855 | 32.22° C | 55% | 1003.5 hPa | - | - | - | - |
| 1778047798 | 27.22° C | 63% | 1006.9 hPa | - | - | - | - |
| 1778046598 | 27.22° C | 63% | 1006.9 hPa | - | - | - | - |
| 1778045398 | 27.22° C | 63% | 1007 hPa | - | - | - | - |
| 1778044198 | 27.22° C | 63% | 1007.2 hPa | - | - | - | - |
| 1778042998 | 27.22° C | 63% | 1007.4 hPa | - | - | - | - |
| 1778041798 | 27.22° C | 63% | 1007.7 hPa | - | - | - | - |
| 1778040599 | 27.22° C | 63% | 1007.9 hPa | - | - | - | - |
| 1778039398 | 27.22° C | 63% | 1007.9 hPa | - | - | - | - |
| 1778038198 | 27.22° C | 63% | 1008.1 hPa | - | - | - | - |
| 1778036998 | 27.22° C | 63% | 1008.1 hPa | - | - | - | - |
| 1778035798 | 26.67° C | 64% | 1008 hPa | - | - | - | - |
| 1778034598 | 27.22° C | 63% | 1008 hPa | - | - | - | - |
| 1778033398 | 26.67° C | 63% | 1008 hPa | - | - | - | - |
| 1778032198 | 27.22° C | 63% | 1007.9 hPa | - | - | - | - |
| 1778030998 | 27.22° C | 63% | 1008 hPa | - | - | - | - |
| 1778029798 | 27.22° C | 63% | 1007.9 hPa | - | - | - | - |
| 1778028598 | 27.22° C | 63% | 1007.8 hPa | - | - | - | - |
| 1778027398 | 27.22° C | 63% | 1007.7 hPa | - | - | - | - |
| 1778026198 | 27.22° C | 62% | 1007.7 hPa | - | - | - | - |
| 1778024999 | 26.67° C | 63% | 1007.7 hPa | - | - | - | - |
| 1778023798 | 27.22° C | 62% | 1007.7 hPa | - | - | - | - |
| 1778022598 | 27.78° C | 60% | 1007.6 hPa | - | - | - | - |
| 1778021398 | 27.22° C | 61% | 1007.5 hPa | - | - | - | - |
| 1778020198 | 27.78° C | 60% | 1007.3 hPa | - | - | - | - |
* Rain since midnight (hover to see other rain measurements)
** Current wind speed in m/s (hover to see current wind gust speed)